Time;durP1;ratioP1;P1;durP2;ratioP2;P2;SDS_P1;SDS_P2;PMS_P1;PMS_P2;Temp;Humidity;BMP_temperature;BMP_pressure;BME280_temperature;BME280_humidity;BME280_pressure;Samples;Min_cycle;Max_cycle;Signal;HPM_P1;HPM_P2
2023/08/12 00:01:05;;;;;;;5.80;4.90;;;27.30;90.90;;;;;;5011102;28;20562;-70
2023/08/12 00:03:36;;;;;;;5.63;5.03;;;27.30;90.90;;;;;;4995123;28;20446;-70
2023/08/12 00:06:05;;;;;;;6.47;5.20;;;27.30;91.00;;;;;;5028657;28;20457;-69
2023/08/12 00:08:33;;;;;;;5.87;4.40;;;27.30;91.00;;;;;;5010934;28;20415;-70
2023/08/12 00:11:04;;;;;;;5.17;4.77;;;27.30;91.00;;;;;;4978569;28;20831;-70
2023/08/12 00:13:30;;;;;;;5.80;5.20;;;27.30;91.10;;;;;;5010116;28;20874;-70
2023/08/12 00:15:56;;;;;;;5.70;5.20;;;27.30;91.10;;;;;;5028543;28;20400;-70
2023/08/12 00:18:23;;;;;;;5.57;4.93;;;27.30;91.10;;;;;;4994366;28;20248;-69
2023/08/12 00:20:48;;;;;;;5.53;5.03;;;27.20;91.10;;;;;;5010709;28;20431;-70
2023/08/12 00:23:17;;;;;;;5.37;4.83;;;27.20;91.10;;;;;;5010925;28;20438;-70
2023/08/12 00:25:49;;;;;;;6.43;4.60;;;27.20;91.10;;;;;;5028217;28;20462;-69
2023/08/12 00:28:18;;;;;;;6.17;5.00;;;27.20;91.20;;;;;;5010763;28;20519;-70
2023/08/12 00:30:44;;;;;;;5.23;4.80;;;27.20;91.20;;;;;;5010646;28;20558;-70
2023/08/12 00:33:10;;;;;;;5.50;5.00;;;27.20;91.30;;;;;;5010730;28;20160;-70
2023/08/12 00:35:36;;;;;;;5.63;5.17;;;27.20;91.30;;;;;;4994476;28;20781;-70
2023/08/12 00:38:02;;;;;;;5.37;4.80;;;27.10;91.30;;;;;;4994566;28;20420;-70
2023/08/12 00:40:28;;;;;;;5.93;5.43;;;27.10;91.30;;;;;;5028053;28;20863;-70
2023/08/12 00:42:56;;;;;;;7.00;5.00;;;27.10;91.40;;;;;;4994304;28;20474;-70
2023/08/12 00:45:24;;;;;;;5.00;4.50;;;27.10;91.30;;;;;;5028451;28;20407;-70
2023/08/12 00:47:51;;;;;;;5.70;5.20;;;27.10;91.40;;;;;;4978189;28;20433;-70
2023/08/12 00:50:22;;;;;;;5.20;4.80;;;27.10;91.30;;;;;;4994056;28;20459;-70
2023/08/12 00:52:49;;;;;;;5.27;4.77;;;27.10;91.40;;;;;;5010309;28;20411;-70
2023/08/12 00:55:17;;;;;;;6.20;5.13;;;27.10;91.50;;;;;;5010222;28;20427;-70
2023/08/12 00:57:43;;;;;;;5.70;5.20;;;27.10;91.40;;;;;;4993735;28;20568;-70
2023/08/12 01:00:10;;;;;;;5.40;4.90;;;27.10;91.50;;;;;;4993769;28;20423;-70
2023/08/12 01:02:38;;;;;;;5.50;4.93;;;27.10;91.50;;;;;;5009989;28;20530;-71
2023/08/12 01:05:05;;;;;;;6.17;4.83;;;27.00;91.50;;;;;;5009582;28;20423;-71
2023/08/12 01:07:33;;;;;;;5.33;4.93;;;27.00;91.50;;;;;;4994208;28;20411;-71
2023/08/12 01:09:59;;;;;;;5.33;4.83;;;27.00;91.50;;;;;;4993479;28;20443;-71
2023/08/12 01:12:41;;;;;;;5.53;5.13;;;27.00;91.60;;;;;;5027291;28;20622;-70
2023/08/12 01:15:21;;;;;;;5.40;4.90;;;27.00;91.60;;;;;;5027412;28;20407;-70
2023/08/12 01:17:52;;;;;;;5.60;5.17;;;27.00;91.60;;;;;;5008470;28;20538;-72
2023/08/12 01:20:24;;;;;;;4.73;4.33;;;26.90;91.60;;;;;;5009266;28;20727;-71
2023/08/12 01:22:58;;;;;;;5.90;5.40;;;26.90;91.90;;;;;;5009588;28;20447;-71
2023/08/12 01:25:25;;;;;;;6.23;5.20;;;26.90;91.60;;;;;;4993114;28;20481;-71
2023/08/12 01:27:56;;;;;;;5.70;4.83;;;26.90;91.60;;;;;;4993272;28;20456;-71
2023/08/12 01:30:25;;;;;;;5.70;4.87;;;26.90;91.60;;;;;;5009252;28;20414;-72
2023/08/12 01:33:02;;;;;;;4.83;4.43;;;26.90;91.60;;;;;;4993436;28;20431;-71
2023/08/12 01:35:33;;;;;;;5.17;4.73;;;26.90;91.70;;;;;;4992990;28;20407;-71
2023/08/12 01:38:03;;;;;;;5.10;4.70;;;26.90;91.70;;;;;;4992124;28;20403;-71
2023/08/12 01:40:33;;;;;;;5.23;4.83;;;26.80;91.70;;;;;;4991859;28;20423;-71
2023/08/12 01:43:03;;;;;;;4.93;4.57;;;26.80;91.70;;;;;;5025755;28;20395;-70
2023/08/12 01:45:32;;;;;;;5.00;4.60;;;26.80;91.70;;;;;;5008049;28;20458;-71
2023/08/12 01:47:58;;;;;;;5.70;5.20;;;26.80;91.80;;;;;;5007979;28;20499;-71
2023/08/12 01:50:25;;;;;;;7.70;5.00;;;26.80;91.70;;;;;;5007721;28;20435;-71
2023/08/12 01:52:55;;;;;;;6.47;5.10;;;26.80;91.80;;;;;;5026547;28;20476;-71
2023/08/12 01:55:21;;;;;;;5.77;4.90;;;26.80;91.80;;;;;;5009655;28;20427;-71
2023/08/12 01:57:49;;;;;;;5.40;4.57;;;26.70;91.80;;;;;;4993470;28;20235;-71
2023/08/12 02:00:16;;;;;;;5.50;5.00;;;26.70;91.80;;;;;;5027182;28;20406;-71
2023/08/12 02:02:47;;;;;;;4.83;4.43;;;26.70;91.80;;;;;;5027343;28;20447;-71
2023/08/12 02:05:16;;;;;;;5.70;5.20;;;26.70;91.80;;;;;;5009294;28;20435;-71
2023/08/12 02:07:42;;;;;;;5.17;4.60;;;26.70;91.80;;;;;;4993129;28;20438;-70
2023/08/12 02:10:14;;;;;;;5.50;5.00;;;26.70;91.80;;;;;;5027475;28;20414;-70
2023/08/12 02:12:45;;;;;;;5.10;4.60;;;26.70;91.80;;;;;;5009418;28;20474;-71
2023/08/12 02:15:11;;;;;;;5.90;4.80;;;26.70;91.80;;;;;;5009496;28;20439;-70
2023/08/12 02:17:37;;;;;;;5.13;4.73;;;26.70;91.90;;;;;;5009845;28;20524;-70
2023/08/12 02:20:06;;;;;;;4.67;4.27;;;26.70;91.90;;;;;;5009890;28;20467;-70
2023/08/12 02:22:37;;;;;;;5.43;4.70;;;26.70;91.80;;;;;;5027313;28;20443;-71
2023/08/12 02:25:03;;;;;;;5.20;4.80;;;26.70;91.90;;;;;;4993182;28;20931;-70
2023/08/12 02:27:29;;;;;;;5.23;4.73;;;26.60;91.80;;;;;;5009419;28;20411;-70
2023/08/12 02:29:58;;;;;;;5.00;4.57;;;26.60;91.90;;;;;;5009755;28;20427;-71
2023/08/12 02:32:26;;;;;;;5.83;5.13;;;26.60;91.80;;;;;;4993005;28;21043;-70
2023/08/12 02:34:52;;;;;;;5.40;4.90;;;26.60;91.90;;;;;;4993190;28;20835;-71
2023/08/12 02:37:21;;;;;;;5.43;5.03;;;26.60;91.90;;;;;;5011994;28;20807;-71
2023/08/12 02:39:47;;;;;;;4.70;4.30;;;26.60;91.90;;;;;;5013148;28;20435;-71
2023/08/12 02:42:13;;;;;;;6.03;4.90;;;26.60;92.00;;;;;;5012940;28;20497;-70
2023/08/12 02:44:39;;;;;;;4.50;4.10;;;26.50;91.90;;;;;;4996676;28;20977;-71
2023/08/12 02:47:05;;;;;;;5.27;4.77;;;26.50;91.90;;;;;;5013135;28;20462;-70
2023/08/12 02:49:34;;;;;;;5.03;4.63;;;26.50;91.90;;;;;;4997077;28;20525;-70
2023/08/12 02:52:00;;;;;;;4.93;4.53;;;26.50;91.90;;;;;;5012373;28;20601;-71
2023/08/12 02:54:31;;;;;;;4.70;4.30;;;26.50;92.00;;;;;;4996807;28;20470;-70
2023/08/12 02:56:59;;;;;;;4.77;4.37;;;26.50;92.00;;;;;;5012915;28;20446;-70
2023/08/12 02:59:25;;;;;;;5.13;4.70;;;26.50;92.00;;;;;;4996954;28;20421;-71
2023/08/12 03:01:52;;;;;;;5.10;4.70;;;26.50;92.00;;;;;;5012966;28;20451;-71
2023/08/12 03:04:18;;;;;;;4.77;4.40;;;26.40;92.00;;;;;;4996394;28;20450;-71
2023/08/12 03:06:44;;;;;;;5.30;4.77;;;26.40;92.30;;;;;;5012285;28;20466;-70
2023/08/12 03:09:15;;;;;;;4.90;4.53;;;26.40;92.00;;;;;;5012033;28;20455;-71
2023/08/12 03:11:43;;;;;;;5.07;4.47;;;26.40;92.00;;;;;;4995662;28;20470;-70
2023/08/12 03:14:13;;;;;;;5.20;4.70;;;26.40;92.10;;;;;;5011935;28;20473;-70
2023/08/12 03:16:38;;;;;;;5.13;4.73;;;26.40;92.10;;;;;;4996270;28;20792;-70
2023/08/12 03:19:07;;;;;;;5.60;5.10;;;26.40;92.10;;;;;;5013014;28;20391;-71
2023/08/12 03:21:35;;;;;;;4.10;3.80;;;26.40;92.10;;;;;;5012713;28;20231;-71
2023/08/12 03:24:01;;;;;;;4.50;4.10;;;26.40;92.10;;;;;;5012132;28;20910;-70
2023/08/12 03:26:29;;;;;;;5.30;4.60;;;26.40;92.10;;;;;;5012977;28;20442;-70
2023/08/12 03:28:58;;;;;;;4.90;4.50;;;26.40;92.10;;;;;;4996917;28;20230;-71
2023/08/12 03:31:24;;;;;;;4.20;3.90;;;26.30;92.10;;;;;;4996760;28;20562;-71
2023/08/12 03:33:57;;;;;;;5.37;4.87;;;26.40;92.20;;;;;;4997248;28;20422;-70
2023/08/12 03:36:23;;;;;;;4.87;4.47;;;26.30;92.20;;;;;;5013183;28;20449;-70
2023/08/12 03:38:54;;;;;;;5.73;5.23;;;26.30;92.20;;;;;;5012644;28;20482;-70
2023/08/12 03:41:31;;;;;;;4.80;4.50;;;26.30;92.20;;;;;;5012704;28;21275;-71
2023/08/12 03:44:02;;;;;;;4.70;4.30;;;26.30;92.20;;;;;;5011750;28;20891;-70
2023/08/12 03:46:28;;;;;;;4.73;4.40;;;26.30;92.20;;;;;;5011603;28;20434;-71
2023/08/12 03:48:55;;;;;;;4.70;4.30;;;26.20;92.20;;;;;;4994144;28;20791;-70
2023/08/12 03:51:21;;;;;;;4.90;4.50;;;26.30;92.20;;;;;;4995096;28;20985;-70
2023/08/12 03:53:50;;;;;;;4.57;4.27;;;26.20;92.20;;;;;;5011991;28;20438;-70
2023/08/12 03:56:18;;;;;;;4.80;4.40;;;26.20;92.20;;;;;;5011358;28;20447;-70
2023/08/12 03:58:45;;;;;;;6.10;4.10;;;26.20;92.30;;;;;;5011715;28;20392;-70
2023/08/12 04:01:11;;;;;;;4.80;4.40;;;26.20;92.20;;;;;;5011784;28;20450;-70
2023/08/12 04:03:37;;;;;;;5.83;5.27;;;26.20;92.30;;;;;;5011535;28;20462;-70
2023/08/12 04:06:03;;;;;;;4.40;4.10;;;26.20;92.30;;;;;;4995155;28;20431;-70
2023/08/12 04:08:32;;;;;;;5.10;4.73;;;26.20;92.30;;;;;;4994997;28;20408;-70
2023/08/12 04:10:58;;;;;;;5.60;5.10;;;26.20;92.30;;;;;;4994764;28;20989;-70
2023/08/12 04:13:27;;;;;;;4.40;4.10;;;26.10;92.30;;;;;;5011660;28;20412;-70
2023/08/12 04:15:53;;;;;;;4.10;3.80;;;26.10;92.30;;;;;;5010912;28;20428;-70
2023/08/12 04:18:22;;;;;;;5.43;4.93;;;26.10;92.40;;;;;;4994719;28;20423;-70
2023/08/12 04:20:57;;;;;;;4.63;4.23;;;26.10;92.40;;;;;;4994581;28;20762;-69
2023/08/12 04:23:26;;;;;;;4.83;4.43;;;26.10;92.40;;;;;;4993561;28;20428;-69
2023/08/12 04:25:54;;;;;;;5.03;4.53;;;26.10;92.40;;;;;;5008424;28;20434;-71
2023/08/12 04:28:26;;;;;;;5.30;4.83;;;26.10;92.40;;;;;;5010274;28;20445;-70
2023/08/12 04:30:55;;;;;;;5.27;4.70;;;26.10;92.40;;;;;;4993527;28;20459;-71
2023/08/12 04:33:25;;;;;;;4.67;4.37;;;26.10;92.40;;;;;;4994759;28;20427;-71
2023/08/12 04:35:55;;;;;;;5.50;5.03;;;26.10;92.50;;;;;;5009607;28;20559;-71
2023/08/12 04:38:25;;;;;;;5.43;5.00;;;26.00;92.40;;;;;;4993326;28;20989;-70
2023/08/12 04:40:54;;;;;;;6.43;4.70;;;26.10;92.50;;;;;;5009716;28;20554;-71
2023/08/12 04:43:23;;;;;;;4.73;4.33;;;26.00;92.50;;;;;;5009321;28;20949;-70
2023/08/12 04:45:49;;;;;;;5.03;4.27;;;26.00;92.50;;;;;;5009625;28;20458;-71
2023/08/12 04:48:21;;;;;;;4.83;4.43;;;26.00;92.50;;;;;;5009574;28;20477;-71
2023/08/12 04:50:49;;;;;;;4.90;4.50;;;26.00;92.50;;;;;;5026456;28;20435;-70
2023/08/12 04:53:20;;;;;;;4.77;4.33;;;26.00;92.50;;;;;;5008504;28;20424;-69
2023/08/12 04:55:52;;;;;;;4.93;4.50;;;25.90;92.50;;;;;;5009110;28;20921;-69
2023/08/12 04:58:19;;;;;;;4.80;4.40;;;25.90;92.50;;;;;;5026739;28;20435;-70
2023/08/12 05:00:45;;;;;;;5.40;5.00;;;25.90;92.50;;;;;;4994998;28;20462;-69
2023/08/12 05:03:16;;;;;;;5.10;4.70;;;25.90;92.50;;;;;;4988632;28;20401;-69
2023/08/12 05:05:42;;;;;;;4.70;4.30;;;25.90;92.50;;;;;;4988785;28;20614;-69
2023/08/12 05:08:11;;;;;;;5.10;4.43;;;25.90;92.60;;;;;;5006309;28;20454;-69
2023/08/12 05:10:37;;;;;;;5.23;4.73;;;25.90;92.60;;;;;;4997278;28;20461;-69
2023/08/12 05:13:05;;;;;;;5.17;4.77;;;25.90;92.60;;;;;;5024106;28;21020;-69
2023/08/12 05:15:31;;;;;;;5.10;4.70;;;25.90;92.60;;;;;;4905742;28;20507;-69
2023/08/12 05:17:57;;;;;;;5.27;4.77;;;25.90;92.60;;;;;;4992111;28;21188;-68
2023/08/12 05:20:23;;;;;;;4.93;4.63;;;25.90;92.60;;;;;;4990454;28;20415;-69
2023/08/12 05:22:50;;;;;;;5.37;4.93;;;25.90;92.70;;;;;;4978055;28;20548;-69
2023/08/12 05:25:21;;;;;;;4.83;4.33;;;25.90;92.70;;;;;;4965266;28;20458;-69
2023/08/12 05:27:47;;;;;;;5.43;4.93;;;25.90;92.60;;;;;;5006425;28;20431;-71
2023/08/12 05:30:13;;;;;;;5.10;4.60;;;25.90;92.60;;;;;;5024482;28;20515;-69
2023/08/12 05:32:41;;;;;;;4.87;4.23;;;25.80;92.60;;;;;;4993189;28;20636;-70
2023/08/12 05:35:08;;;;;;;4.90;4.50;;;25.80;92.70;;;;;;4991474;28;20434;-70
2023/08/12 05:37:39;;;;;;;5.00;4.30;;;25.80;92.70;;;;;;4991737;28;20601;-71
2023/08/12 05:40:08;;;;;;;4.90;4.50;;;25.80;92.70;;;;;;4983628;28;20478;-68
2023/08/12 05:42:35;;;;;;;5.60;4.07;;;25.80;92.70;;;;;;4986441;28;20809;-68
2023/08/12 05:45:01;;;;;;;4.93;4.40;;;25.80;92.80;;;;;;4986068;28;20531;-73
2023/08/12 05:47:32;;;;;;;4.57;4.20;;;25.80;92.80;;;;;;4985613;28;20442;-71
2023/08/12 05:50:01;;;;;;;4.73;4.33;;;25.80;92.80;;;;;;4989677;28;20930;-69
2023/08/12 05:52:27;;;;;;;5.37;4.87;;;25.70;92.80;;;;;;4995978;28;20468;-71
2023/08/12 05:54:55;;;;;;;4.27;3.87;;;25.70;92.80;;;;;;4970689;28;20408;-69
2023/08/12 05:57:21;;;;;;;5.03;4.63;;;25.70;92.90;;;;;;5020192;28;20447;-68
2023/08/12 05:59:50;;;;;;;4.67;4.37;;;25.70;92.80;;;;;;5024132;28;20402;-68
2023/08/12 06:02:18;;;;;;;4.60;4.30;;;25.70;92.90;;;;;;5005076;28;20436;-71
2023/08/12 06:04:47;;;;;;;4.63;4.23;;;25.70;92.90;;;;;;5005320;28;20430;-68
2023/08/12 06:07:13;;;;;;;4.63;4.33;;;25.70;92.90;;;;;;4989189;28;20418;-68
2023/08/12 06:09:41;;;;;;;4.20;3.87;;;25.70;92.90;;;;;;5003231;28;20420;-69
2023/08/12 06:12:07;;;;;;;4.77;4.37;;;25.70;92.90;;;;;;4988618;28;20574;-71
2023/08/12 06:14:39;;;;;;;4.53;4.20;;;25.70;92.90;;;;;;5007729;28;20448;-70
2023/08/12 06:17:05;;;;;;;5.13;4.63;;;25.70;93.30;;;;;;4990388;28;21466;-69
2023/08/12 06:19:34;;;;;;;5.53;4.60;;;25.70;93.00;;;;;;4989345;28;21200;-72
2023/08/12 06:22:03;;;;;;;4.53;4.13;;;25.70;93.00;;;;;;4988392;28;20505;-73
2023/08/12 06:24:29;;;;;;;5.40;4.90;;;25.70;93.00;;;;;;4981027;28;20482;-73
2023/08/12 06:26:57;;;;;;;4.70;4.30;;;25.60;93.00;;;;;;4979462;28;20475;-73
2023/08/12 06:29:25;;;;;;;4.13;3.83;;;25.60;93.00;;;;;;4989195;28;21058;-72
2023/08/12 06:31:57;;;;;;;4.53;4.13;;;25.60;93.00;;;;;;4990141;28;20462;-73
2023/08/12 06:34:27;;;;;;;5.43;4.80;;;25.60;93.00;;;;;;5026917;28;20980;-72
2023/08/12 06:36:56;;;;;;;4.97;4.50;;;25.60;93.10;;;;;;4993830;28;20407;-73
2023/08/12 06:39:22;;;;;;;5.50;5.10;;;25.60;93.10;;;;;;4993028;28;20433;-73
2023/08/12 06:41:52;;;;;;;5.07;4.57;;;25.60;93.10;;;;;;4972663;28;20455;-73
2023/08/12 06:44:18;;;;;;;4.23;3.93;;;25.60;93.10;;;;;;4988329;28;20460;-73
2023/08/12 06:46:44;;;;;;;5.03;4.40;;;25.60;93.10;;;;;;5006283;28;21236;-72
2023/08/12 06:49:10;;;;;;;5.90;4.43;;;25.60;93.20;;;;;;4988410;28;20213;-72
2023/08/12 06:51:36;;;;;;;4.43;4.13;;;25.50;93.10;;;;;;4989739;28;20518;-73
2023/08/12 06:54:09;;;;;;;4.53;4.13;;;25.50;93.10;;;;;;5102337;23;20507;-73
2023/08/12 06:56:35;;;;;;;3.77;3.47;;;25.50;93.60;;;;;;5011476;28;20469;-73
2023/08/12 06:59:03;;;;;;;5.60;5.20;;;25.50;93.20;;;;;;5043843;28;20419;-73
2023/08/12 07:01:29;;;;;;;4.40;4.10;;;25.50;93.20;;;;;;5036961;28;20203;-73
2023/08/12 07:03:58;;;;;;;4.57;4.20;;;25.50;93.30;;;;;;5022961;28;20738;-73
2023/08/12 07:06:24;;;;;;;4.43;4.03;;;25.50;93.30;;;;;;5007319;28;20416;-74
2023/08/12 07:08:52;;;;;;;4.50;4.20;;;25.50;93.30;;;;;;5024376;28;20204;-74
2023/08/12 07:11:21;;;;;;;5.73;5.00;;;25.50;93.30;;;;;;5006244;28;20481;-74
2023/08/12 07:13:49;;;;;;;5.10;4.70;;;25.40;93.30;;;;;;5023291;28;20515;-74
2023/08/12 07:16:22;;;;;;;5.47;4.97;;;25.40;93.30;;;;;;4991444;28;20952;-74
2023/08/12 07:18:48;;;;;;;5.60;5.20;;;25.40;93.30;;;;;;4990751;28;20538;-74
2023/08/12 07:21:14;;;;;;;5.20;4.70;;;25.40;93.40;;;;;;5017585;28;20461;-74
2023/08/12 07:23:45;;;;;;;4.73;4.20;;;25.40;93.40;;;;;;4912922;28;20306;-74
2023/08/12 07:26:13;;;;;;;4.87;4.47;;;25.40;93.40;;;;;;5005837;28;20415;-73
2023/08/12 07:28:40;;;;;;;5.50;5.00;;;25.40;93.40;;;;;;5005792;28;20462;-73
2023/08/12 07:31:06;;;;;;;4.70;4.40;;;25.40;93.40;;;;;;5024701;28;20995;-73
2023/08/12 07:33:35;;;;;;;4.47;4.17;;;25.40;93.50;;;;;;5022882;28;20415;-73
2023/08/12 07:36:03;;;;;;;4.63;4.33;;;25.40;93.40;;;;;;5024013;28;20458;-74
2023/08/12 07:38:29;;;;;;;4.90;4.50;;;25.40;93.40;;;;;;5025703;28;20421;-74
2023/08/12 07:40:57;;;;;;;4.87;4.30;;;25.40;93.50;;;;;;5013550;28;20446;-75
2023/08/12 07:43:23;;;;;;;5.27;4.47;;;25.40;93.50;;;;;;5022648;28;21054;-75
2023/08/12 07:45:58;;;;;;;4.43;4.13;;;25.40;93.50;;;;;;5012943;28;20415;-75
2023/08/12 07:48:28;;;;;;;4.93;4.53;;;25.40;93.40;;;;;;5021781;28;20236;-74
2023/08/12 07:50:56;;;;;;;4.43;4.13;;;25.30;93.40;;;;;;5023985;28;20862;-75
2023/08/12 07:53:25;;;;;;;4.60;4.30;;;25.30;93.50;;;;;;4997114;28;20459;-74
2023/08/12 07:55:52;;;;;;;5.23;4.73;;;25.30;93.60;;;;;;5006180;28;20408;-74
2023/08/12 07:58:20;;;;;;;5.27;4.87;;;25.30;93.70;;;;;;4990305;28;20894;-74
2023/08/12 08:00:51;;;;;;;5.00;4.47;;;25.30;93.80;;;;;;4995753;28;20541;-76
2023/08/12 08:03:18;;;;;;;4.87;4.47;;;25.30;93.80;;;;;;5023368;28;20410;-74
2023/08/12 08:05:46;;;;;;;5.57;4.40;;;25.30;93.80;;;;;;5023008;28;20443;-75
2023/08/12 08:08:13;;;;;;;4.87;4.47;;;25.30;93.80;;;;;;5021158;28;20437;-75
2023/08/12 08:10:44;;;;;;;5.20;4.80;;;25.30;93.70;;;;;;5021815;28;20454;-74
2023/08/12 08:13:10;;;;;;;4.80;4.40;;;25.30;93.80;;;;;;5010271;28;20891;-75
2023/08/12 08:15:41;;;;;;;5.07;4.67;;;25.30;93.80;;;;;;5019982;28;20433;-74
2023/08/12 08:18:06;;;;;;;5.20;4.80;;;25.30;93.80;;;;;;5023415;28;20411;-74
2023/08/12 08:20:33;;;;;;;5.10;4.57;;;25.30;93.80;;;;;;5024436;28;20404;-75
2023/08/12 08:23:01;;;;;;;5.23;4.50;;;25.30;93.70;;;;;;5022928;28;20443;-74
2023/08/12 08:25:32;;;;;;;4.90;4.50;;;25.30;93.80;;;;;;5022913;28;21077;-74
2023/08/12 08:27:57;;;;;;;5.03;4.63;;;25.30;93.80;;;;;;4988979;28;20183;-75
2023/08/12 08:30:25;;;;;;;4.90;4.50;;;25.20;93.80;;;;;;5005478;28;20411;-75
2023/08/12 08:32:54;;;;;;;5.10;4.60;;;25.20;93.80;;;;;;5022892;28;20474;-74
2023/08/12 08:35:22;;;;;;;4.60;4.30;;;25.20;93.80;;;;;;5004563;28;20419;-75
2023/08/12 08:37:51;;;;;;;4.90;4.50;;;25.20;93.70;;;;;;5005000;28;20422;-74
2023/08/12 08:40:17;;;;;;;5.10;4.70;;;25.20;93.70;;;;;;4990735;28;20898;-76
2023/08/12 08:42:44;;;;;;;4.10;3.80;;;25.20;93.80;;;;;;4990832;28;20497;-74
2023/08/12 08:45:14;;;;;;;4.43;4.13;;;25.20;93.90;;;;;;5016307;28;20427;-76
2023/08/12 08:47:43;;;;;;;4.50;4.17;;;25.20;93.90;;;;;;5003558;28;20445;-74
2023/08/12 08:50:15;;;;;;;4.27;3.87;;;25.20;93.90;;;;;;5021407;28;20455;-74
2023/08/12 08:52:43;;;;;;;4.13;3.83;;;25.20;93.90;;;;;;4993670;28;21240;-73
2023/08/12 08:55:18;;;;;;;5.13;4.63;;;25.20;93.80;;;;;;5009129;28;20470;-74
2023/08/12 08:57:50;;;;;;;4.80;4.40;;;25.20;93.80;;;;;;5020179;28;20793;-73
2023/08/12 09:00:17;;;;;;;4.93;4.53;;;25.20;93.80;;;;;;5021122;28;20407;-73
2023/08/12 09:02:50;;;;;;;4.90;4.60;;;25.20;93.80;;;;;;5003228;28;20535;-74
2023/08/12 09:05:22;;;;;;;5.50;5.00;;;25.20;93.80;;;;;;5002303;28;20461;-74
2023/08/12 09:07:51;;;;;;;5.10;4.53;;;25.20;93.90;;;;;;4983199;28;20432;-73
2023/08/12 09:10:20;;;;;;;5.50;4.80;;;25.20;93.90;;;;;;5001188;28;20443;-73
2023/08/12 09:12:48;;;;;;;4.70;4.30;;;25.20;94.00;;;;;;4970136;28;20560;-74
2023/08/12 09:15:16;;;;;;;4.80;4.40;;;25.20;94.00;;;;;;4981613;28;20431;-74
2023/08/12 09:17:42;;;;;;;4.53;4.13;;;25.20;94.00;;;;;;5000993;28;20518;-75
2023/08/12 09:20:11;;;;;;;4.40;4.10;;;25.20;94.00;;;;;;5002255;28;20434;-74
2023/08/12 09:22:43;;;;;;;4.40;4.10;;;25.20;94.10;;;;;;4987126;28;20469;-74
2023/08/12 09:25:12;;;;;;;4.40;4.10;;;25.20;94.10;;;;;;4992254;28;20475;-74
2023/08/12 09:27:39;;;;;;;4.60;4.30;;;25.20;94.10;;;;;;4999509;28;20447;-73
2023/08/12 09:30:05;;;;;;;4.30;3.90;;;25.20;94.00;;;;;;4979308;28;20865;-75
2023/08/12 09:32:34;;;;;;;3.80;3.50;;;25.20;94.10;;;;;;5023956;28;20471;-75
2023/08/12 09:35:03;;;;;;;4.30;4.00;;;25.20;94.20;;;;;;5002532;28;20425;-77
2023/08/12 09:37:29;;;;;;;4.50;4.10;;;25.20;94.30;;;;;;4985359;28;20885;-75
2023/08/12 09:39:58;;;;;;;4.90;4.40;;;25.20;94.40;;;;;;4985048;28;20579;-74
2023/08/12 09:42:27;;;;;;;5.00;4.60;;;25.20;94.40;;;;;;5002942;28;20466;-75
2023/08/12 09:44:54;;;;;;;4.93;4.40;;;25.20;94.50;;;;;;4989042;28;20455;-74
2023/08/12 09:47:28;;;;;;;5.10;4.63;;;25.20;96.40;;;;;;5004962;28;20457;-74
2023/08/12 09:49:55;;;;;;;4.10;3.80;;;25.20;99.60;;;;;;5004650;28;20463;-74
2023/08/12 09:52:22;;;;;;;4.00;3.70;;;25.20;99.90;;;;;;5020175;28;21532;-74
2023/08/12 09:54:55;;;;;;;6.10;3.90;;;25.10;99.90;;;;;;5006586;28;20530;-75
2023/08/12 09:57:27;;;;;;;3.43;3.23;;;25.10;99.90;;;;;;5022669;28;20454;-74
2023/08/12 09:59:54;;;;;;;5.60;2.77;;;25.00;99.90;;;;;;5004727;28;20446;-75
2023/08/12 10:02:20;;;;;;;3.13;2.87;;;24.90;99.90;;;;;;5005703;28;20456;-74
2023/08/12 10:04:55;;;;;;;3.10;2.80;;;24.90;99.90;;;;;;5011718;28;20954;-75
2023/08/12 10:07:29;;;;;;;3.30;2.83;;;24.90;99.90;;;;;;5014928;28;20451;-74
2023/08/12 10:09:55;;;;;;;3.00;2.80;;;24.90;99.90;;;;;;5003375;28;20428;-75
2023/08/12 10:12:22;;;;;;;3.17;2.97;;;24.80;99.90;;;;;;4969650;28;20463;-75
2023/08/12 10:14:48;;;;;;;3.13;2.83;;;24.80;99.90;;;;;;4969696;28;20523;-76
2023/08/12 10:17:16;;;;;;;3.40;2.60;;;24.80;99.90;;;;;;4970274;28;20435;-77
2023/08/12 10:19:46;;;;;;;2.57;2.37;;;24.80;99.90;;;;;;4987396;28;20412;-78
2023/08/12 10:22:14;;;;;;;3.10;2.60;;;24.80;99.90;;;;;;4970679;28;20460;-75
2023/08/12 10:24:43;;;;;;;2.40;2.20;;;24.70;99.90;;;;;;5005147;28;20404;-78
2023/08/12 10:27:12;;;;;;;2.90;2.70;;;24.70;99.90;;;;;;4985322;28;20423;-75
2023/08/12 10:29:38;;;;;;;2.50;2.40;;;24.70;99.90;;;;;;4986227;28;20412;-76
2023/08/12 10:32:08;;;;;;;3.10;2.87;;;24.70;99.90;;;;;;4990796;28;20513;-76
2023/08/12 10:34:35;;;;;;;3.20;2.87;;;24.70;99.90;;;;;;5020834;28;20467;-77
2023/08/12 10:37:02;;;;;;;2.50;2.30;;;24.60;99.90;;;;;;4993671;28;21005;-77
2023/08/12 10:39:32;;;;;;;6.40;2.53;;;24.60;99.90;;;;;;5002030;28;20438;-77
2023/08/12 10:41:59;;;;;;;2.90;2.70;;;24.70;99.90;;;;;;4988457;28;21196;-76
2023/08/12 10:44:50;;;;;;;3.07;2.87;;;24.60;99.90;;;;;;5004699;28;21219;-76
2023/08/12 10:47:16;;;;;;;2.67;2.47;;;24.60;99.90;;;;;;4987899;28;20489;-73
2023/08/12 10:49:49;;;;;;;2.80;2.60;;;24.60;99.90;;;;;;5015801;28;20435;-73
2023/08/12 10:52:33;;;;;;;3.20;2.90;;;24.60;99.90;;;;;;5021580;28;20462;-77
2023/08/12 10:55:25;;;;;;;2.20;2.10;;;24.60;99.90;;;;;;5012470;28;20899;-78
2023/08/12 10:57:58;;;;;;;2.33;2.13;;;24.60;99.90;;;;;;5003135;28;20446;-75
2023/08/12 11:00:25;;;;;;;2.63;2.43;;;24.60;99.90;;;;;;5022405;28;20473;-78
2023/08/12 11:02:53;;;;;;;2.10;2.00;;;24.60;99.90;;;;;;5026071;28;20415;-75
2023/08/12 11:05:26;;;;;;;2.43;2.20;;;24.60;99.90;;;;;;5025099;28;20419;-75
2023/08/12 11:08:00;;;;;;;2.10;2.00;;;24.60;99.90;;;;;;5003811;28;20550;-76
2023/08/12 11:10:30;;;;;;;2.40;2.20;;;24.60;99.90;;;;;;4993660;28;21125;-76
2023/08/12 11:12:57;;;;;;;2.40;2.23;;;24.60;99.90;;;;;;5007335;28;20477;-76
2023/08/12 11:15:43;;;;;;;2.20;2.10;;;24.60;99.90;;;;;;5025001;28;20442;-76
2023/08/12 11:18:17;;;;;;;2.00;1.90;;;24.60;99.90;;;;;;5025669;28;20954;-76
2023/08/12 11:20:46;;;;;;;2.53;2.33;;;24.60;99.90;;;;;;5012102;28;21160;-76
2023/08/12 11:23:15;;;;;;;2.03;1.90;;;24.60;99.90;;;;;;5023844;28;20406;-76
2023/08/12 11:25:44;;;;;;;2.13;1.93;;;24.70;99.90;;;;;;5069716;23;20867;-75
2023/08/12 11:28:10;;;;;;;1.80;1.70;;;24.70;99.90;;;;;;5047670;28;20532;-74
2023/08/12 11:30:36;;;;;;;3.20;1.83;;;24.70;99.90;;;;;;5045223;28;20410;-76
2023/08/12 11:33:06;;;;;;;2.27;2.07;;;24.70;99.90;;;;;;5014320;28;20482;-76
2023/08/12 11:35:35;;;;;;;1.90;1.80;;;24.70;99.90;;;;;;5028234;28;20430;-74
2023/08/12 11:38:01;;;;;;;3.03;1.93;;;24.70;99.90;;;;;;5045183;28;20403;-72
2023/08/12 11:40:31;;;;;;;2.07;1.87;;;24.70;99.90;;;;;;5045526;28;20446;-75
2023/08/12 11:43:00;;;;;;;2.40;2.20;;;24.80;99.90;;;;;;5027892;28;20445;-76
2023/08/12 11:45:30;;;;;;;1.90;1.80;;;24.80;99.90;;;;;;5045331;28;20834;-75
2023/08/12 11:47:59;;;;;;;2.33;2.13;;;24.80;99.90;;;;;;5013035;28;20859;-76
2023/08/12 11:50:26;;;;;;;1.70;1.60;;;24.80;99.90;;;;;;5027174;28;20441;-76
2023/08/12 11:52:58;;;;;;;2.03;1.83;;;24.90;99.90;;;;;;5007518;28;20633;-74
2023/08/12 11:55:25;;;;;;;1.63;1.53;;;24.90;99.90;;;;;;5025684;28;20497;-76
2023/08/12 11:57:53;;;;;;;2.63;1.80;;;24.90;99.90;;;;;;5028181;28;20418;-77
2023/08/12 12:00:25;;;;;;;2.30;1.93;;;25.00;99.90;;;;;;5015644;28;20562;-76
2023/08/12 12:02:54;;;;;;;2.90;2.00;;;25.00;99.90;;;;;;5012967;28;20419;-75
2023/08/12 12:05:27;;;;;;;5.63;1.90;;;25.10;99.90;;;;;;5046465;28;20814;-72
2023/08/12 12:07:55;;;;;;;2.13;1.93;;;25.10;99.90;;;;;;5027495;28;20451;-77
2023/08/12 12:10:27;;;;;;;2.50;2.30;;;25.10;99.90;;;;;;5043947;28;20470;-76
2023/08/12 12:12:55;;;;;;;2.60;2.40;;;25.10;99.90;;;;;;5026533;28;20480;-73
2023/08/12 12:15:24;;;;;;;3.07;2.87;;;25.10;99.90;;;;;;5026759;28;20510;-75
2023/08/12 12:17:50;;;;;;;2.77;2.57;;;25.10;99.90;;;;;;5027553;28;20552;-78
2023/08/12 12:20:17;;;;;;;6.47;4.43;;;25.00;99.90;;;;;;5007793;28;20474;-73
2023/08/12 12:22:48;;;;;;;3.30;3.10;;;25.00;99.90;;;;;;5009246;28;20430;-76
2023/08/12 12:25:18;;;;;;;3.80;3.50;;;24.90;99.90;;;;;;5026562;28;20466;-77
2023/08/12 12:27:46;;;;;;;6.43;3.93;;;24.90;99.90;;;;;;5033587;28;20414;-74
2023/08/12 12:30:16;;;;;;;4.10;3.70;;;24.80;99.90;;;;;;5007597;28;20553;-74
2023/08/12 12:32:42;;;;;;;3.77;3.43;;;24.70;99.90;;;;;;5006968;28;20543;-73
2023/08/12 12:35:08;;;;;;;3.80;3.50;;;24.70;99.90;;;;;;5025010;28;21242;-74
2023/08/12 12:37:37;;;;;;;5.40;3.60;;;24.60;99.90;;;;;;5022798;28;20419;-75
2023/08/12 12:40:07;;;;;;;6.00;3.40;;;24.50;99.90;;;;;;5023868;28;20497;-73
2023/08/12 12:42:35;;;;;;;4.00;3.60;;;24.50;99.90;;;;;;5042321;28;20496;-74
2023/08/12 12:45:03;;;;;;;4.20;3.80;;;24.50;99.90;;;;;;5024776;28;20426;-70
2023/08/12 12:47:30;;;;;;;3.87;3.57;;;24.40;99.90;;;;;;5024737;28;20403;-73
2023/08/12 12:49:56;;;;;;;3.90;3.60;;;24.40;99.90;;;;;;5008928;28;20425;-73
2023/08/12 12:52:22;;;;;;;3.40;3.10;;;24.40;99.90;;;;;;5023445;28;20470;-71
2023/08/12 12:54:50;;;;;;;4.10;3.80;;;24.30;99.90;;;;;;5025683;28;20419;-72